KMKN

Comanche County-City Airport

Comanche, Texas, USA
METAR KMKN 232215Z AUTO 36005KT 1 1/4SM DZ OVC002 09/09 A3005 RMK AO2 P0001 T00850085
Observed Flight Rules
Feb-23 @ 22:15 UTC (19 minutes ago) Instrument Flight Rules
Wind Visibility Clouds Conditions
360° at 5 knots 1 1/4 miles
  • Overcast at 200' AGL
  • Drizzle
Temperatures Readings Precipitation
Current 9°C / 48°F
Dewpoint 9°C / 48°F
Humidity 100%
Altimeter 30.05" Hg
Pressure 1018 hPa
Elevation 423
Current Rain 0.01
METAR KMKN 232215Z AUTO 36005KT 1 1/4SM DZ OVC002 09/09 A3005 RMK AO2 P0001 T00850085
Observed Flight Rules
Feb-23 @ 22:15 UTC
(19 minutes ago)
LIFR
Wind Visibility
360° at 5 knots 1 1/4 miles
Clouds
  • Overcast at 200' AGL
Conditions
  • Drizzle
Temperature Dewpoint
9°C / 48°F 9°C / 48°F
Humidity Altimeter Pressure
100% 30.05" Hg 1018 hPa
Current Rain
0.01